createdAt,value
2018-03-11T00:00:58.729Z,50.40
2018-03-11T00:02:00.153Z,50.40
2018-03-11T00:03:01.567Z,50.30
2018-03-11T00:04:03.743Z,50.50
2018-03-11T00:05:05.170Z,49.90
2018-03-11T00:06:06.594Z,49.70
2018-03-11T00:07:08.793Z,50.60
2018-03-11T00:09:14.419Z,49.10
2018-03-11T00:10:16.568Z,49.10
2018-03-11T00:11:18.717Z,49.40
2018-03-11T00:12:20.134Z,48.80
2018-03-11T00:13:21.534Z,48.30
2018-03-11T00:15:10.898Z,49.00
2018-03-11T00:16:12.306Z,48.50
2018-03-11T00:17:13.718Z,48.50
2018-03-11T00:18:15.106Z,48.40
2018-03-11T00:19:17.254Z,49.00
2018-03-11T00:20:19.022Z,48.50
2018-03-11T00:21:21.906Z,48.10
2018-03-11T00:22:24.046Z,48.60
2018-03-11T00:23:26.554Z,48.20
2018-03-11T00:24:28.698Z,48.40
2018-03-11T00:25:30.418Z,48.00
2018-03-11T00:26:31.822Z,47.70
2018-03-11T00:27:33.252Z,48.00
2018-03-11T00:28:34.634Z,47.70
2018-03-11T00:29:36.029Z,47.70
2018-03-11T00:30:38.200Z,48.10
2018-03-11T00:31:40.582Z,47.80
2018-03-11T00:32:42.724Z,47.80
2018-03-11T00:33:44.134Z,47.20
2018-03-11T00:34:45.539Z,47.20
2018-03-11T00:35:48.466Z,47.10
2018-03-11T00:36:49.873Z,47.20
2018-03-11T00:38:09.133Z,47.00
2018-03-11T00:40:05.032Z,46.40
2018-03-11T00:41:06.767Z,46.50
2018-03-11T00:43:11.453Z,46.40
2018-03-11T00:48:58.165Z,46.30
2018-03-11T00:49:59.578Z,46.10
2018-03-11T00:51:00.982Z,45.90
2018-03-11T00:52:03.500Z,46.00
2018-03-11T00:53:05.245Z,46.20
2018-03-11T00:54:07.400Z,46.10
2018-03-11T00:55:08.798Z,46.00
2018-03-11T00:56:11.002Z,46.00
2018-03-11T00:57:12.430Z,45.70
2018-03-11T00:58:14.114Z,46.00
2018-03-11T00:59:15.518Z,45.90
2018-03-11T01:00:17.678Z,46.40
2018-03-11T01:01:51.326Z,46.10
2018-03-11T01:05:10.846Z,46.20
2018-03-11T01:06:41.130Z,46.20
2018-03-11T01:07:42.614Z,46.10
2018-03-11T01:08:45.523Z,45.90
2018-03-11T01:09:46.932Z,45.90
2018-03-11T01:10:50.158Z,46.20
2018-03-11T01:11:52.309Z,46.20
2018-03-11T01:13:37.028Z,46.00
2018-03-11T01:14:40.075Z,45.50
2018-03-11T01:15:41.482Z,45.60
2018-03-11T01:17:47.219Z,45.30
2018-03-11T01:18:48.614Z,45.50
2018-03-11T01:19:50.030Z,45.50
2018-03-11T01:21:14.928Z,45.30
2018-03-11T01:22:16.328Z,45.10
2018-03-11T01:23:18.778Z,45.60
2018-03-11T01:24:20.171Z,45.40
2018-03-11T01:25:22.702Z,45.40
2018-03-11T01:26:24.114Z,45.60
2018-03-11T01:27:25.507Z,45.30
2018-03-11T01:28:27.210Z,45.10
2018-03-11T01:31:21.530Z,45.20
2018-03-11T01:32:23.678Z,45.30
2018-03-11T01:33:25.094Z,44.80
2018-03-11T01:34:26.809Z,45.00
2018-03-11T01:35:28.979Z,45.20
2018-03-11T01:36:31.483Z,44.80
2018-03-11T01:37:32.910Z,44.90
2018-03-11T01:38:35.422Z,44.90
2018-03-11T01:39:36.846Z,45.00
2018-03-11T01:40:40.363Z,44.90
2018-03-11T01:41:43.258Z,45.10
2018-03-11T01:42:45.414Z,45.50
2018-03-11T01:43:47.542Z,45.60
2018-03-11T01:44:48.974Z,45.20
2018-03-11T01:45:50.380Z,45.20
2018-03-11T01:46:52.538Z,45.40
2018-03-11T01:48:55.304Z,45.40
2018-03-11T01:49:56.994Z,44.90
2018-03-11T01:52:57.839Z,45.10
2018-03-11T01:53:59.254Z,45.10
2018-03-11T01:55:00.966Z,45.30
2018-03-11T01:56:02.436Z,45.20
2018-03-11T01:57:03.840Z,45.20
2018-03-11T01:58:05.270Z,45.30
2018-03-11T01:59:06.674Z,45.20
2018-03-11T02:00:08.392Z,45.10
2018-03-11T02:01:11.519Z,45.80
2018-03-11T02:02:12.940Z,45.40
2018-03-11T02:03:14.358Z,45.30
2018-03-11T02:04:16.494Z,45.20
2018-03-11T02:05:18.270Z,45.20
2018-03-11T02:06:20.424Z,46.30
2018-03-11T02:07:21.823Z,45.30
2018-03-11T02:08:24.030Z,45.80
2018-03-11T02:09:26.535Z,45.40
2018-03-11T02:10:28.314Z,45.40
2018-03-11T02:11:30.470Z,46.10
2018-03-11T02:12:31.886Z,45.60
2018-03-11T02:13:33.306Z,45.50
2018-03-11T02:15:38.114Z,45.80
2018-03-11T02:16:39.535Z,45.80
2018-03-11T02:17:41.667Z,46.10
2018-03-11T02:18:43.129Z,46.10
2018-03-11T02:19:44.526Z,46.10
2018-03-11T02:20:46.259Z,46.30
2018-03-11T02:21:47.638Z,46.20
2018-03-11T02:22:49.790Z,46.80
2018-03-11T02:23:51.206Z,46.30
2018-03-11T02:24:52.610Z,46.30
2018-03-11T02:25:55.420Z,46.20
2018-03-11T02:26:56.834Z,46.20
2018-03-11T02:27:58.230Z,46.20
2018-03-11T02:28:59.631Z,46.10
2018-03-11T02:31:22.919Z,46.60
2018-03-11T02:32:24.302Z,46.00
2018-03-11T02:33:25.714Z,46.00
2018-03-11T02:34:27.104Z,46.00
2018-03-11T02:35:28.502Z,45.80
2018-03-11T02:36:30.192Z,45.80
2018-03-11T02:37:32.703Z,45.60
2018-03-11T02:40:13.185Z,46.00
2018-03-11T02:41:14.595Z,45.60
2018-03-11T02:42:16.404Z,45.70
2018-03-11T02:43:17.811Z,45.50
2018-03-11T02:44:19.241Z,45.80
2018-03-11T02:46:24.495Z,45.30
2018-03-11T02:47:26.926Z,45.70
2018-03-11T02:48:28.396Z,45.40
2018-03-11T02:49:29.800Z,45.40
2018-03-11T02:50:31.204Z,45.50
2018-03-11T02:51:32.619Z,45.30
2018-03-11T02:52:34.044Z,45.50
2018-03-11T02:53:36.563Z,45.40
2018-03-11T02:54:38.714Z,45.40
2018-03-11T02:55:41.124Z,45.60
2018-03-11T02:56:42.531Z,45.70
2018-03-11T02:58:07.922Z,46.10
2018-03-11T02:59:09.325Z,45.60
2018-03-11T03:00:11.909Z,45.60
2018-03-11T03:01:14.051Z,46.00
2018-03-11T03:02:15.456Z,45.50
2018-03-11T03:03:17.286Z,45.30
2018-03-11T03:04:18.694Z,45.40
2018-03-11T03:05:20.117Z,45.20
2018-03-11T03:06:21.524Z,45.20
2018-03-11T03:07:22.935Z,45.30
2018-03-11T03:08:25.474Z,45.70
2018-03-11T03:09:26.874Z,45.30
2018-03-11T03:10:29.003Z,45.80
2018-03-11T03:11:30.407Z,45.40
2018-03-11T03:12:31.814Z,45.40
2018-03-11T03:14:51.843Z,45.20
2018-03-11T03:15:53.263Z,45.40
2018-03-11T03:16:54.675Z,45.30
2018-03-11T03:17:56.059Z,45.30
2018-03-11T03:18:57.459Z,45.30
2018-03-11T03:19:59.879Z,45.70
2018-03-11T03:21:01.322Z,45.30
2018-03-11T03:22:02.755Z,45.30
2018-03-11T03:23:04.163Z,45.30
2018-03-11T03:24:05.566Z,45.40
2018-03-11T03:25:07.235Z,45.40
2018-03-11T03:26:08.652Z,45.40
2018-03-11T03:28:13.926Z,45.60
2018-03-11T03:29:15.329Z,45.30
2018-03-11T03:30:17.065Z,45.20
2018-03-11T03:31:52.611Z,45.00
2018-03-11T03:32:54.017Z,45.10
2018-03-11T03:33:55.419Z,45.10
2018-03-11T03:34:56.838Z,45.10
2018-03-11T03:35:58.514Z,45.20
2018-03-11T03:36:59.916Z,45.20
2018-03-11T03:38:02.066Z,45.80
2018-03-11T03:39:03.570Z,45.10
2018-03-11T03:40:04.973Z,45.30
2018-03-11T03:41:06.750Z,45.30
2018-03-11T03:42:08.899Z,45.60
2018-03-11T03:43:11.142Z,45.10
2018-03-11T03:44:12.583Z,45.10
2018-03-11T03:46:18.158Z,45.60
2018-03-11T03:47:19.563Z,45.10
2018-03-11T03:48:21.718Z,44.90
2018-03-11T03:50:17.603Z,45.40
2018-03-11T03:51:19.294Z,45.10
2018-03-11T03:52:21.799Z,44.90
2018-03-11T03:53:23.200Z,45.00
2018-03-11T03:54:24.603Z,45.10
2018-03-11T03:55:26.010Z,45.20
2018-03-11T03:57:02.140Z,45.00
2018-03-11T03:58:03.574Z,44.70
2018-03-11T03:59:05.003Z,44.90
2018-03-11T04:00:07.146Z,45.40
2018-03-11T04:01:08.692Z,45.00
2018-03-11T04:02:10.804Z,45.00
2018-03-11T04:03:12.963Z,45.50
2018-03-11T04:04:14.384Z,44.80
2018-03-11T04:05:16.540Z,44.80
2018-03-11T04:06:17.941Z,44.90
2018-03-11T04:07:19.654Z,44.90
2018-03-11T04:08:21.788Z,45.40
2018-03-11T04:09:23.234Z,44.80
2018-03-11T04:10:24.630Z,44.80
2018-03-11T04:11:27.516Z,44.70
2018-03-11T04:12:29.294Z,44.90
2018-03-11T04:13:31.454Z,44.80
2018-03-11T04:14:32.862Z,44.90
2018-03-11T04:15:34.238Z,44.90
2018-03-11T04:16:36.400Z,45.10
2018-03-11T04:17:38.122Z,45.10
2018-03-11T04:19:08.310Z,45.30
2018-03-11T04:20:10.403Z,45.10
2018-03-11T04:21:11.811Z,45.00
2018-03-11T04:22:13.950Z,44.70
2018-03-11T04:23:15.364Z,44.80
2018-03-11T04:24:17.517Z,44.80
2018-03-11T04:25:18.923Z,45.00
2018-03-11T04:26:20.348Z,44.90
2018-03-11T04:27:21.751Z,44.80
2018-03-11T04:28:23.453Z,44.80
2018-03-11T04:29:24.862Z,44.90
2018-03-11T04:30:27.003Z,45.60
2018-03-11T04:31:28.414Z,45.10
2018-03-11T04:32:29.822Z,45.30
2018-03-11T04:33:31.504Z,45.20
2018-03-11T04:34:33.650Z,45.70
2018-03-11T04:36:02.634Z,45.80
2018-03-11T04:37:04.059Z,45.30
2018-03-11T04:38:05.458Z,45.20
2018-03-11T04:39:07.918Z,45.60
2018-03-11T04:41:12.440Z,45.40
2018-03-11T04:42:13.846Z,45.30
2018-03-11T04:43:16.375Z,45.30
2018-03-11T04:44:18.095Z,45.30
2018-03-11T04:45:20.243Z,45.80
2018-03-11T04:46:21.646Z,45.20
2018-03-11T04:47:23.787Z,45.70
2018-03-11T04:48:25.195Z,45.20
2018-03-11T04:49:26.918Z,45.30
2018-03-11T04:50:28.324Z,46.90
2018-03-11T04:51:29.724Z,45.30
2018-03-11T04:52:31.131Z,45.30
2018-03-11T04:53:32.515Z,45.40
2018-03-11T04:54:34.219Z,45.40
2018-03-11T04:56:40.390Z,45.60
2018-03-11T04:57:41.786Z,45.70
2018-03-11T04:58:43.927Z,46.10
2018-03-11T04:59:45.610Z,45.60
2018-03-11T05:01:51.594Z,45.30
2018-03-11T05:02:53.734Z,45.80
2018-03-11T05:03:55.144Z,45.30
2018-03-11T05:04:56.857Z,45.40
2018-03-11T05:05:58.251Z,45.30
2018-03-11T05:07:00.395Z,45.90
2018-03-11T05:08:01.816Z,45.40
2018-03-11T05:09:03.309Z,45.50
2018-03-11T05:10:05.781Z,46.50
2018-03-11T05:11:07.205Z,45.60
2018-03-11T05:12:08.599Z,45.70
2018-03-11T05:13:10.695Z,45.80
2018-03-11T05:14:12.099Z,45.90
2018-03-11T05:15:13.771Z,45.90
2018-03-11T05:17:54.179Z,46.30
2018-03-11T05:18:55.561Z,45.80
2018-03-11T05:19:56.955Z,45.60
2018-03-11T05:20:58.660Z,45.60
2018-03-11T05:22:00.077Z,45.60
2018-03-11T05:23:01.473Z,45.70
2018-03-11T05:24:02.899Z,45.80
2018-03-11T05:25:04.341Z,45.70
2018-03-11T05:26:05.763Z,45.70
2018-03-11T05:27:07.911Z,46.10
2018-03-11T05:28:09.327Z,45.80
2018-03-11T05:29:12.211Z,45.60
2018-03-11T05:30:13.616Z,45.60
2018-03-11T05:31:15.293Z,45.60
2018-03-11T05:32:16.677Z,45.60
2018-03-11T05:34:56.766Z,45.40
2018-03-11T05:35:58.171Z,45.40
2018-03-11T05:36:59.597Z,45.40
2018-03-11T05:38:01.023Z,45.40
2018-03-11T05:39:02.489Z,45.40
2018-03-11T05:40:03.927Z,45.50
2018-03-11T05:41:05.329Z,45.50
2018-03-11T05:42:07.037Z,45.60
2018-03-11T05:43:10.695Z,45.60
2018-03-11T05:44:12.102Z,45.60
2018-03-11T05:45:14.635Z,45.60
2018-03-11T05:46:16.034Z,45.60
2018-03-11T05:47:18.510Z,46.40
2018-03-11T05:48:21.401Z,45.90
2018-03-11T05:49:23.923Z,45.90
2018-03-11T05:50:25.345Z,45.90
2018-03-11T05:51:26.748Z,45.90
2018-03-11T05:52:28.915Z,46.40
2018-03-11T05:54:33.445Z,46.00
2018-03-11T05:55:34.859Z,45.80
2018-03-11T05:56:36.249Z,45.60
2018-03-11T05:57:37.943Z,45.60
2018-03-11T05:58:39.363Z,45.70
2018-03-11T05:59:41.007Z,45.70
2018-03-11T06:00:42.436Z,45.60
2018-03-11T06:01:43.843Z,45.50
2018-03-11T06:02:45.279Z,45.60
2018-03-11T06:03:47.803Z,45.60
2018-03-11T06:04:49.939Z,45.80
2018-03-11T06:06:31.438Z,45.50
2018-03-11T06:07:33.609Z,45.40
2018-03-11T06:08:36.507Z,45.40
2018-03-11T06:09:38.668Z,45.50
2018-03-11T06:10:41.616Z,45.40
2018-03-11T06:11:43.030Z,45.60
2018-03-11T06:12:44.446Z,45.70
2018-03-11T06:13:45.878Z,45.80
2018-03-11T06:14:47.287Z,45.70
2018-03-11T06:15:48.693Z,45.80
2018-03-11T06:16:50.164Z,45.80
2018-03-11T06:17:51.551Z,45.90
2018-03-11T06:18:53.100Z,45.80
2018-03-11T06:19:55.255Z,46.50
2018-03-11T06:20:57.392Z,46.50
2018-03-11T06:21:58.799Z,46.00
2018-03-11T06:23:01.684Z,46.20
2018-03-11T06:24:03.368Z,46.20
2018-03-11T06:25:04.807Z,46.10
2018-03-11T06:26:06.228Z,46.10
2018-03-11T06:27:08.367Z,46.40
2018-03-11T06:28:11.515Z,46.50
2018-03-11T06:29:13.693Z,46.50
2018-03-11T06:30:16.589Z,46.00
2018-03-11T06:31:18.746Z,46.40
2018-03-11T06:32:21.252Z,45.80
2018-03-11T06:33:22.660Z,45.90
2018-03-11T06:35:06.363Z,45.70
2018-03-11T06:36:07.767Z,45.70
2018-03-11T06:37:09.166Z,45.80
2018-03-11T06:38:16.754Z,45.80
2018-03-11T06:39:18.159Z,45.90
2018-03-11T06:40:19.891Z,45.90
2018-03-11T06:41:21.286Z,45.80
2018-03-11T06:42:22.717Z,45.90
2018-03-11T06:44:27.952Z,46.20
2018-03-11T06:45:29.366Z,46.20
2018-03-11T06:47:33.871Z,46.30
2018-03-11T06:48:35.278Z,46.50
2018-03-11T06:49:36.708Z,46.40
2018-03-11T06:50:38.139Z,46.60
2018-03-11T06:51:40.587Z,47.20
2018-03-11T06:52:41.992Z,46.50
2018-03-11T06:53:43.390Z,46.50
2018-03-11T06:54:44.791Z,46.40
2018-03-11T07:02:05.026Z,45.60
2018-03-11T07:03:06.435Z,45.60
2018-03-11T07:05:11.785Z,45.40
2018-03-11T07:06:13.254Z,45.50
2018-03-11T07:07:14.667Z,45.50
2018-03-11T07:08:17.373Z,45.60
2018-03-11T07:09:18.866Z,45.50
2018-03-11T07:10:20.489Z,45.50
2018-03-11T07:12:26.878Z,45.30
2018-03-11T07:13:28.531Z,45.40
2018-03-11T07:16:36.736Z,45.60
2018-03-11T07:18:42.665Z,45.50
2018-03-11T07:19:44.379Z,45.40
2018-03-11T07:20:46.976Z,45.40
2018-03-11T07:21:48.754Z,45.40
2018-03-11T07:22:50.375Z,45.30
2018-03-11T07:24:55.497Z,45.30
2018-03-11T07:25:57.953Z,45.40
2018-03-11T07:27:00.135Z,45.30
2018-03-11T07:28:01.677Z,45.30
2018-03-11T07:29:03.994Z,45.40
2018-03-11T07:30:05.521Z,45.30
2018-03-11T07:31:07.095Z,45.20
2018-03-11T07:32:09.046Z,45.30
2018-03-11T07:34:14.927Z,45.50
2018-03-11T07:35:16.400Z,45.40
2018-03-11T07:36:17.886Z,45.50
2018-03-11T07:37:19.356Z,45.30
2018-03-11T07:38:20.821Z,45.40
2018-03-11T07:39:22.316Z,45.60
2018-03-11T07:40:23.796Z,45.40
2018-03-11T07:41:26.780Z,45.30
2018-03-11T07:42:28.500Z,45.40
2018-03-11T07:43:53.123Z,45.60
2018-03-11T07:44:54.583Z,45.50
2018-03-11T07:46:41.800Z,45.70
2018-03-11T07:47:43.658Z,45.70
2018-03-11T07:48:45.118Z,45.80
2018-03-11T07:49:46.537Z,45.80
2018-03-11T07:51:51.069Z,45.80
2018-03-11T07:52:52.787Z,45.60
2018-03-11T07:54:29.722Z,45.50
2018-03-11T07:55:31.122Z,45.50
2018-03-11T07:56:32.547Z,45.50
2018-03-11T07:57:34.710Z,45.20
2018-03-11T07:58:36.159Z,45.20
2018-03-11T07:59:37.582Z,45.30
2018-03-11T08:00:39.996Z,44.90
2018-03-11T08:01:41.427Z,45.00
2018-03-11T08:02:42.858Z,45.10
2018-03-11T08:03:44.579Z,45.20
2018-03-11T08:04:46.746Z,45.20
2018-03-11T08:06:51.302Z,44.80
2018-03-11T08:07:52.747Z,44.80
2018-03-11T08:09:57.328Z,44.70
2018-03-11T08:10:58.751Z,44.70
2018-03-11T08:12:00.196Z,44.70
2018-03-11T08:13:01.623Z,44.70
2018-03-11T08:14:03.054Z,44.50
2018-03-11T08:15:04.491Z,44.60
2018-03-11T08:16:06.780Z,44.00
2018-03-11T08:18:11.942Z,44.60
2018-03-11T08:19:14.871Z,44.60
2018-03-11T08:20:16.325Z,44.70
2018-03-11T08:21:17.698Z,44.60
2018-03-11T08:22:19.122Z,44.60
2018-03-11T08:24:24.778Z,44.90
2018-03-11T08:25:53.171Z,45.00
2018-03-11T08:26:54.588Z,45.00
2018-03-11T08:28:59.106Z,44.70
2018-03-11T08:30:01.647Z,44.80
2018-03-11T08:31:03.061Z,44.80
2018-03-11T08:33:08.694Z,44.20
2018-03-11T08:34:10.366Z,44.30
2018-03-11T08:35:11.796Z,44.40
2018-03-11T08:36:13.324Z,44.10
2018-03-11T08:37:14.726Z,44.10
2018-03-11T08:38:16.142Z,43.60
2018-03-11T08:40:57.812Z,43.70
2018-03-11T08:45:08.564Z,43.70
2018-03-11T08:46:53.122Z,43.50
2018-03-11T08:48:57.619Z,43.60
2018-03-11T08:49:59.775Z,43.50
2018-03-11T08:51:01.182Z,43.60
2018-03-11T08:54:10.122Z,43.10
2018-03-11T08:55:11.523Z,43.40
2018-03-11T08:56:13.662Z,43.60
2018-03-11T08:59:21.335Z,43.60
2018-03-11T09:00:22.707Z,43.80
2018-03-11T09:01:24.099Z,43.80
2018-03-11T09:02:25.505Z,43.60
2018-03-11T09:03:27.640Z,43.40
2018-03-11T09:04:29.781Z,42.80
2018-03-11T09:05:31.166Z,43.30
2018-03-11T09:06:32.546Z,43.40
2018-03-11T09:07:33.955Z,43.20
2018-03-11T09:08:36.875Z,42.60
2018-03-11T09:09:38.294Z,42.90
2018-03-11T09:10:40.198Z,43.10
2018-03-11T09:11:41.595Z,42.90
2018-03-11T09:12:44.175Z,42.30
2018-03-11T09:13:45.562Z,42.60
2018-03-11T09:16:41.211Z,42.90
2018-03-11T09:17:43.779Z,42.20
2018-03-11T09:18:45.184Z,42.60
2018-03-11T09:19:46.583Z,42.50
2018-03-11T09:20:48.722Z,42.60
2018-03-11T09:22:53.235Z,43.00
2018-03-11T09:27:41.388Z,41.80
2018-03-11T09:30:13.766Z,41.90
2018-03-11T09:31:15.180Z,42.10
2018-03-11T09:32:17.706Z,41.80
2018-03-11T09:33:19.854Z,41.70
2018-03-11T09:37:09.555Z,42.60
2018-03-11T09:38:12.428Z,42.00
2018-03-11T09:39:13.876Z,41.70
2018-03-11T09:40:15.340Z,42.10
2018-03-11T09:42:19.919Z,41.40
2018-03-11T09:44:24.446Z,41.40
2018-03-11T09:46:29.331Z,41.40
2018-03-11T09:49:37.972Z,42.00
2018-03-11T09:50:40.230Z,42.20
2018-03-11T09:51:42.041Z,42.00
2018-03-11T09:52:43.850Z,41.60
2018-03-11T09:55:53.698Z,42.50
2018-03-11T09:57:58.717Z,42.40
2018-03-11T10:01:07.103Z,42.20
2018-03-11T10:02:08.723Z,42.30
2018-03-11T10:03:10.632Z,42.10
2018-03-11T10:04:12.305Z,42.20
2018-03-11T10:05:13.963Z,42.00
2018-03-11T10:06:16.247Z,41.60
2018-03-11T10:07:17.909Z,42.10
2018-03-11T10:09:23.175Z,42.20
2018-03-11T10:10:24.696Z,42.00
2018-03-11T10:12:29.649Z,42.70
2018-03-11T10:15:38.273Z,42.50
2018-03-11T10:19:50.101Z,41.80
2018-03-11T10:20:51.494Z,41.60
2018-03-11T10:21:52.917Z,41.60
2018-03-11T10:22:55.075Z,42.00
2018-03-11T10:23:56.478Z,42.20
2018-03-11T10:24:57.943Z,42.30
2018-03-11T10:26:00.103Z,42.00
2018-03-11T10:27:01.535Z,42.30
2018-03-11T10:29:07.175Z,40.30
2018-03-11T10:31:12.678Z,41.50
2018-03-11T10:32:14.372Z,41.40
2018-03-11T10:33:17.255Z,41.50
2018-03-11T10:34:18.661Z,41.20
2018-03-11T10:35:20.089Z,41.40
2018-03-11T10:36:21.508Z,41.40
2018-03-11T10:37:22.948Z,41.40
2018-03-11T10:38:25.095Z,40.90
2018-03-11T10:39:26.542Z,41.30
2018-03-11T10:40:27.956Z,40.80
2018-03-11T10:41:30.109Z,41.50
2018-03-11T10:42:32.272Z,41.80
2018-03-11T10:43:33.714Z,41.60
2018-03-11T10:44:35.217Z,41.90
2018-03-11T10:45:38.107Z,41.10
2018-03-11T10:46:39.510Z,41.60
2018-03-11T10:47:41.468Z,41.60
2018-03-11T10:48:42.887Z,41.60
2018-03-11T10:49:44.463Z,41.80
2018-03-11T10:50:45.884Z,41.00
2018-03-11T10:52:51.461Z,41.70
2018-03-11T10:53:52.877Z,41.50
2018-03-11T10:54:54.271Z,41.80
2018-03-11T10:55:57.246Z,41.00
2018-03-11T10:57:00.140Z,40.80
2018-03-11T10:58:01.557Z,41.00
2018-03-11T10:59:02.987Z,40.80
2018-03-11T11:00:05.164Z,40.20
2018-03-11T11:01:12.529Z,40.90
2018-03-11T11:03:27.130Z,40.00
2018-03-11T11:05:34.663Z,41.00
2018-03-11T11:06:36.079Z,40.90
2018-03-11T11:07:37.479Z,39.90
2018-03-11T11:08:39.173Z,40.50
2018-03-11T11:09:40.938Z,40.00
2018-03-11T11:10:43.453Z,39.20
2018-03-11T11:11:44.867Z,39.50
2018-03-11T11:12:46.277Z,40.10
2018-03-11T11:13:49.224Z,40.00
2018-03-11T11:14:50.641Z,40.40
2018-03-11T11:15:52.029Z,40.00
2018-03-11T11:16:54.162Z,39.70
2018-03-11T11:17:55.567Z,40.20
2018-03-11T11:18:57.294Z,40.30
2018-03-11T11:19:58.685Z,40.60
2018-03-11T11:21:00.091Z,40.50
2018-03-11T11:22:02.254Z,39.30
2018-03-11T11:23:03.689Z,40.20
2018-03-11T11:24:05.130Z,39.80
2018-03-11T11:25:06.552Z,39.80
2018-03-11T11:26:07.982Z,38.80
2018-03-11T11:27:11.102Z,39.00
2018-03-11T11:28:13.253Z,40.30
2018-03-11T11:29:16.831Z,39.70
2018-03-11T11:31:22.144Z,39.00
2018-03-11T11:32:24.312Z,39.10
2018-03-11T11:33:27.191Z,39.20
2018-03-11T11:34:28.593Z,39.20
2018-03-11T11:35:30.016Z,39.40
2018-03-11T11:36:31.421Z,38.50
2018-03-11T11:37:34.356Z,38.00
2018-03-11T11:38:35.800Z,38.60
2018-03-11T11:39:38.701Z,36.60
2018-03-11T11:40:41.074Z,36.80
2018-03-11T11:41:43.487Z,37.00
2018-03-11T11:42:44.968Z,37.90
2018-03-11T11:43:46.472Z,38.90
2018-03-11T11:44:47.960Z,38.10
2018-03-11T11:45:49.405Z,39.00
2018-03-11T11:46:50.876Z,38.70
2018-03-11T11:47:52.539Z,38.70
2018-03-11T11:48:54.079Z,38.20
2018-03-11T11:49:55.619Z,38.70
2018-03-11T11:50:57.119Z,38.90
2018-03-11T11:53:02.003Z,39.20
2018-03-11T11:55:08.267Z,38.10
2018-03-11T11:57:14.270Z,38.00
2018-03-11T11:59:18.902Z,37.60
2018-03-11T12:02:27.281Z,38.70
2018-03-11T12:03:28.922Z,38.70
2018-03-11T12:04:30.413Z,38.50
2018-03-11T12:05:32.332Z,38.80
2018-03-11T12:06:33.750Z,39.00
2018-03-11T12:07:35.239Z,38.10
2018-03-11T12:09:40.337Z,38.60
2018-03-11T12:10:42.321Z,38.90
2018-03-11T12:11:43.841Z,38.50
2018-03-11T12:12:46.562Z,37.00
2018-03-11T12:14:53.020Z,37.90
2018-03-11T12:15:54.908Z,37.90
2018-03-11T12:16:56.442Z,38.10
2018-03-11T12:17:57.863Z,37.10
2018-03-11T12:20:02.381Z,38.40
2018-03-11T12:21:03.811Z,37.40
2018-03-11T12:22:06.011Z,37.00
2018-03-11T12:24:11.428Z,38.30
2018-03-11T12:25:12.828Z,38.10
2018-03-11T12:26:14.249Z,36.50
2018-03-11T12:27:15.633Z,37.50
2018-03-11T12:28:17.073Z,37.20
2018-03-11T12:29:18.475Z,37.30
2018-03-11T12:30:19.883Z,36.80
2018-03-11T12:33:27.567Z,37.50
2018-03-11T12:34:29.031Z,37.70
2018-03-11T12:35:30.414Z,36.50
2018-03-11T12:36:32.148Z,36.10
2018-03-11T12:37:33.576Z,36.60
2018-03-11T12:38:35.017Z,37.00
2018-03-11T12:39:36.436Z,37.00
2018-03-11T12:42:44.228Z,37.00
2018-03-11T12:43:45.633Z,37.80
2018-03-11T12:45:50.145Z,36.90
2018-03-11T12:46:51.577Z,37.50
2018-03-11T12:47:53.015Z,37.10
2018-03-11T12:48:55.175Z,36.30
2018-03-11T12:49:56.577Z,37.00
2018-03-11T12:50:58.005Z,36.80
2018-03-11T12:53:02.536Z,37.70
2018-03-11T12:54:03.976Z,36.40
2018-03-11T12:55:06.125Z,36.30
2018-03-11T12:57:12.427Z,36.20
2018-03-11T12:58:13.853Z,36.80
2018-03-11T13:00:18.735Z,37.30
2018-03-11T13:03:27.471Z,37.00
2018-03-11T13:05:32.046Z,37.00
2018-03-11T13:06:34.186Z,37.00
2018-03-11T13:08:38.766Z,36.80
2018-03-11T13:10:43.457Z,36.60
2018-03-11T13:11:45.166Z,36.30
2018-03-11T13:15:56.778Z,36.80
2018-03-11T13:16:58.185Z,35.90
2018-03-11T13:17:59.910Z,36.70
2018-03-11T13:19:01.311Z,36.50
2018-03-11T13:21:17.886Z,36.10
2018-03-11T13:22:19.280Z,36.00
2018-03-11T13:26:31.491Z,35.90
2018-03-11T13:27:32.939Z,36.70
2018-03-11T13:28:47.433Z,37.20
2018-03-11T13:29:48.834Z,36.40
2018-03-11T13:33:27.828Z,35.70
2018-03-11T13:36:35.415Z,35.70
2018-03-11T13:38:59.343Z,35.90
2018-03-11T13:40:20.325Z,35.60
2018-03-11T13:41:22.109Z,36.30
2018-03-11T13:42:23.936Z,36.50
2018-03-11T13:43:25.622Z,35.80
2018-03-11T13:44:27.983Z,35.90
2018-03-11T13:45:48.276Z,35.60
2018-03-11T13:47:11.423Z,35.20
2018-03-11T13:50:19.499Z,35.40
2018-03-11T13:51:39.551Z,35.60
2018-03-11T13:52:59.393Z,35.90
2018-03-11T13:54:02.437Z,38.70
2018-03-11T13:56:07.712Z,36.60
2018-03-11T14:00:24.531Z,35.50
2018-03-11T14:01:25.950Z,34.20
2018-03-11T14:02:28.836Z,35.50
2018-03-11T14:04:33.385Z,36.70
2018-03-11T14:05:34.802Z,36.20
2018-03-11T14:06:36.995Z,35.40
2018-03-11T14:07:38.403Z,35.50
2018-03-11T14:09:42.931Z,34.70
2018-03-11T14:11:48.901Z,35.00
2018-03-11T14:12:50.299Z,34.70
2018-03-11T14:14:54.868Z,35.60
2018-03-11T14:15:57.010Z,34.80
2018-03-11T14:16:59.873Z,35.40
2018-03-11T14:18:01.999Z,34.60
2018-03-11T14:19:03.438Z,35.50
2018-03-11T14:20:04.841Z,35.90
2018-03-11T14:21:06.987Z,36.00
2018-03-11T14:22:08.426Z,35.90
2018-03-11T14:23:10.401Z,36.00
2018-03-11T14:24:12.084Z,36.40
2018-03-11T14:25:13.463Z,36.50
2018-03-11T14:27:17.987Z,35.80
2018-03-11T14:30:25.628Z,35.20
2018-03-11T14:31:27.052Z,35.70
2018-03-11T14:32:28.479Z,36.10
2018-03-11T14:34:33.020Z,35.30
2018-03-11T14:36:39.015Z,35.40
2018-03-11T14:38:43.612Z,35.40
2018-03-11T14:39:45.280Z,34.50
2018-03-11T14:40:46.717Z,35.30
2018-03-11T14:41:48.148Z,35.80
2018-03-11T14:43:54.202Z,35.90
2018-03-11T14:44:55.912Z,36.00
2018-03-11T14:45:57.334Z,35.70
2018-03-11T14:48:01.877Z,35.40
2018-03-11T14:49:03.301Z,35.30
2018-03-11T14:50:05.037Z,35.30
2018-03-11T14:51:06.455Z,36.00
2018-03-11T14:55:19.371Z,35.90
2018-03-11T14:56:20.787Z,36.10
2018-03-11T14:57:22.179Z,35.90
2018-03-11T14:58:24.355Z,35.60
2018-03-11T15:01:32.099Z,35.10
2018-03-11T15:02:33.609Z,35.60
2018-03-11T15:03:35.048Z,36.20
2018-03-11T15:07:45.906Z,35.30
2018-03-11T15:08:47.375Z,35.80
2018-03-11T15:10:52.047Z,35.60
2018-03-11T15:12:57.360Z,35.40
2018-03-11T15:13:58.801Z,35.70
2018-03-11T15:15:00.282Z,36.40
2018-03-11T15:16:01.759Z,36.70
2018-03-11T15:18:06.337Z,37.00
2018-03-11T15:20:10.909Z,37.20
2018-03-11T15:21:12.403Z,37.00
2018-03-11T15:23:17.009Z,36.90
2018-03-11T15:24:18.437Z,36.80
2018-03-11T15:26:24.797Z,36.40
2018-03-11T15:29:32.550Z,36.20
2018-03-11T15:30:33.989Z,36.10
2018-03-11T15:31:35.456Z,36.20
2018-03-11T15:32:36.877Z,36.50
2018-03-11T15:33:38.311Z,35.70
2018-03-11T15:37:49.245Z,35.40
2018-03-11T15:39:53.847Z,35.80
2018-03-11T15:40:55.308Z,36.10
2018-03-11T15:44:04.439Z,36.00
2018-03-11T15:45:05.856Z,36.10
2018-03-11T15:46:07.327Z,35.70
2018-03-11T15:48:12.774Z,36.00
2018-03-11T15:50:17.375Z,35.90
2018-03-11T15:51:18.802Z,36.10
2018-03-11T15:53:23.412Z,36.50
2018-03-11T15:54:24.859Z,35.30
2018-03-11T15:57:32.567Z,36.40
2018-03-11T15:59:37.135Z,36.50
2018-03-11T16:02:45.124Z,36.60
2018-03-11T16:03:46.573Z,36.30
2018-03-11T16:05:51.123Z,35.70
2018-03-11T16:06:52.576Z,36.30
2018-03-11T16:07:54.040Z,36.20
2018-03-11T16:08:55.457Z,36.40
2018-03-11T16:09:57.607Z,36.30
2018-03-11T16:13:05.370Z,36.90
2018-03-11T16:15:10.002Z,34.40
2018-03-11T16:16:11.436Z,35.80
2018-03-11T16:17:13.578Z,35.70
2018-03-11T16:18:15.282Z,36.00
2018-03-11T16:22:26.136Z,36.40
2018-03-11T16:24:30.994Z,36.10
2018-03-11T16:25:32.451Z,36.50
2018-03-11T16:26:33.882Z,37.00
2018-03-11T16:28:38.477Z,36.70
2018-03-11T16:29:40.087Z,36.20
2018-03-11T16:30:41.537Z,36.10
2018-03-11T16:31:44.465Z,36.70
2018-03-11T16:33:49.075Z,36.80
2018-03-11T16:34:50.487Z,37.10
2018-03-11T16:43:14.818Z,35.80
2018-03-11T16:44:16.279Z,35.80
2018-03-11T16:54:46.036Z,36.40
2018-03-11T16:55:47.477Z,36.60
2018-03-11T16:56:48.924Z,36.60
2018-03-11T16:58:53.511Z,36.20
2018-03-11T16:59:54.981Z,36.40
2018-03-11T17:00:56.423Z,36.20
2018-03-11T17:01:57.843Z,36.30
2018-03-11T17:02:59.255Z,36.10
2018-03-11T17:04:00.658Z,36.10
2018-03-11T17:09:14.895Z,36.00
2018-03-11T17:10:16.364Z,36.10